Time;durP1;ratioP1;P1;durP2;ratioP2;P2;SDS_P1;SDS_P2;PMS_P1;PMS_P2;Temp;Humidity;BMP_temperature;BMP_pressure;BME280_temperature;BME280_humidity;BME280_pressure;Samples;Min_cycle;Max_cycle;Signal;HPM_P1;HPM_P2
2022/06/28 04:14:16;;;;;;;6.12;5.35;;;;;;;22.53;65.85;100567.94;5552925;32;33969;-84
2022/06/28 04:17:19;;;;;;;6.32;5.65;;;;;;;22.25;65.99;100569.75;5559441;32;34970;-84
2022/06/28 04:20:23;;;;;;;6.62;5.43;;;;;;;22.52;64.55;100565.41;5552287;32;35030;-85
2022/06/28 04:23:28;;;;;;;8.43;5.62;;;;;;;22.74;64.03;100566.84;5547267;32;33790;-85
2022/06/28 04:26:31;;;;;;;5.97;5.37;;;;;;;22.96;63.85;100553.88;5544417;32;35025;-85
2022/06/28 04:29:34;;;;;;;5.75;4.87;;;;;;;23.13;62.87;100563.03;5544669;32;33926;-85
2022/06/28 04:32:38;;;;;;;5.85;4.90;;;;;;;23.37;61.45;100565.13;5556244;32;33835;-85
2022/06/28 04:35:41;;;;;;;7.53;4.90;;;;;;;23.72;60.72;100562.53;5556550;32;34437;-85
2022/06/28 04:38:44;;;;;;;7.47;4.62;;;;;;;24.00;57.67;100566.94;5557747;32;33590;-85
2022/06/28 04:41:50;;;;;;;8.35;4.45;;;;;;;24.16;56.95;100555.37;5557396;32;34761;-85
2022/06/28 04:44:53;;;;;;;7.45;4.40;;;;;;;24.73;55.51;100552.03;5554874;32;33767;-85
2022/06/28 04:47:56;;;;;;;11.32;4.53;;;;;;;25.35;53.76;100558.09;5553950;32;32360;-85
2022/06/28 04:51:10;;;;;;;5.12;4.62;;;;;;;25.79;50.61;100558.78;5557469;32;34043;-85
2022/06/28 04:54:14;;;;;;;8.27;4.50;;;;;;;26.00;50.39;100571.81;5557787;32;34964;-85
2022/06/28 04:57:19;;;;;;;5.95;4.70;;;;;;;26.27;50.29;100583.31;5554999;32;34965;-85
2022/06/28 05:00:25;;;;;;;5.97;4.50;;;;;;;26.38;50.31;100612.00;5538057;32;34298;-85
2022/06/28 05:03:48;;;;;;;6.37;4.95;;;;;;;26.58;48.55;100645.06;5549652;32;34641;-85
2022/06/28 05:06:53;;;;;;;7.97;4.85;;;;;;;25.51;51.85;100638.72;5537555;32;34625;-89
2022/06/28 05:09:56;;;;;;;8.25;4.70;;;;;;;25.14;54.14;100648.16;5545978;32;34734;-89
2022/06/28 05:12:58;;;;;;;7.57;4.35;;;;;;;24.70;54.04;100647.31;5543125;32;34502;-90
2022/06/28 05:16:01;;;;;;;8.35;4.22;;;;;;;24.68;53.43;100643.06;5525128;32;34851;-89
2022/06/28 05:19:04;;;;;;;6.57;4.35;;;;;;;24.84;52.15;100662.12;5524116;32;34019;-85
2022/06/28 05:22:11;;;;;;;9.13;4.20;;;;;;;24.80;53.16;100655.31;5515509;32;35034;-86
2022/06/28 05:25:14;;;;;;;9.00;4.43;;;;;;;24.72;53.51;100647.97;5519375;32;35164;-86
2022/06/28 05:28:17;;;;;;;5.70;4.65;;;;;;;24.82;53.68;100663.28;5524060;32;34269;-86
2022/06/28 05:31:20;;;;;;;7.45;4.62;;;;;;;24.76;54.58;100698.19;5530665;32;34393;-85
2022/06/28 05:34:23;;;;;;;14.65;4.68;;;;;;;24.55;55.63;100719.41;5528987;32;35317;-86
2022/06/28 05:37:26;;;;;;;6.47;4.90;;;;;;;24.26;57.28;100721.44;5532798;32;33820;-86
2022/06/28 05:40:29;;;;;;;12.98;5.10;;;;;;;24.34;57.48;100696.25;5538436;32;34956;-86
2022/06/28 05:43:32;;;;;;;9.30;4.97;;;;;;;24.13;59.92;100683.91;5531560;32;34611;-86
2022/06/28 05:46:35;;;;;;;10.52;4.90;;;;;;;24.06;62.18;100693.63;5546498;32;34964;-86
2022/06/28 05:49:38;;;;;;;11.77;5.40;;;;;;;24.02;63.83;100695.81;5545126;32;33451;-85
2022/06/28 05:52:41;;;;;;;10.45;5.10;;;;;;;23.84;64.85;100695.84;5543305;32;34187;-86
2022/06/28 05:55:44;;;;;;;9.18;4.87;;;;;;;23.85;65.20;100683.12;5531643;32;33911;-86
2022/06/28 05:58:50;;;;;;;12.63;5.90;;;;;;;23.75;68.49;100683.22;5525991;32;34845;-85
2022/06/28 06:01:55;;;;;;;23.08;6.25;;;;;;;22.08;86.34;100618.16;5520677;32;35479;-85
2022/06/28 06:05:02;;;;;;;12.23;5.40;;;;;;;21.02;96.26;100581.94;5522536;32;34664;-85
2022/06/28 06:08:05;;;;;;;9.27;5.97;;;;;;;20.68;96.25;100523.84;5533695;32;34286;-86
2022/06/28 06:11:08;;;;;;;12.27;6.47;;;;;;;20.61;98.58;100501.13;5532799;32;34003;-86
2022/06/28 06:14:11;;;;;;;13.30;5.80;;;;;;;20.43;100.00;100485.63;5524229;32;35225;-85
2022/06/28 06:17:14;;;;;;;11.20;5.93;;;;;;;20.41;100.00;100478.69;5514033;32;34167;-85
2022/06/28 06:20:16;;;;;;;8.23;6.35;;;;;;;20.26;100.00;100497.91;5513239;32;34025;-86
2022/06/28 06:23:19;;;;;;;16.60;6.12;;;;;;;20.25;100.00;100508.81;5514881;32;34293;-86
2022/06/28 06:26:24;;;;;;;14.43;6.07;;;;;;;20.28;100.00;100532.81;5520237;32;34969;-86
2022/06/28 06:29:28;;;;;;;11.70;5.75;;;;;;;20.40;100.00;100545.19;5529270;32;33880;-86
2022/06/28 06:32:31;;;;;;;11.10;4.90;;;;;;;20.38;100.00;100555.25;5511944;32;34217;-86
2022/06/28 06:35:35;;;;;;;11.18;5.85;;;;;;;20.51;100.00;100556.84;5511062;32;32378;-86
2022/06/28 06:38:38;;;;;;;12.82;5.87;;;;;;;20.50;100.00;100572.16;5510579;32;33584;-86
2022/06/28 06:41:40;;;;;;;13.13;6.10;;;;;;;20.50;100.00;100552.44;5511235;32;33774;-86
2022/06/28 06:44:43;;;;;;;10.07;6.60;;;;;;;20.31;100.00;100552.25;5510280;32;33677;-86
2022/06/28 06:47:46;;;;;;;10.48;6.35;;;;;;;20.27;100.00;100561.56;5516057;32;34803;-86
2022/06/28 06:50:49;;;;;;;10.93;6.28;;;;;;;20.29;100.00;100538.06;5529410;32;33956;-86
2022/06/28 06:53:52;;;;;;;9.50;6.03;;;;;;;20.22;100.00;100554.91;5532431;32;34065;-85
2022/06/28 06:56:54;;;;;;;10.20;5.72;;;;;;;20.32;100.00;100553.09;5531061;32;34104;-86
2022/06/28 06:59:57;;;;;;;12.13;6.05;;;;;;;20.39;100.00;100532.72;5530476;32;33814;-86
2022/06/28 07:03:02;;;;;;;11.12;5.55;;;;;;;20.38;100.00;100536.41;5529065;32;32340;-85
2022/06/28 07:06:05;;;;;;;13.90;6.18;;;;;;;20.30;100.00;100547.84;5529371;32;34168;-86
2022/06/28 07:09:08;;;;;;;9.02;5.43;;;;;;;20.19;100.00;100543.41;5529043;32;34031;-86
2022/06/28 07:12:11;;;;;;;9.93;5.00;;;;;;;20.14;100.00;100524.13;5529226;32;34065;-86
2022/06/28 07:15:14;;;;;;;9.15;5.87;;;;;;;20.31;100.00;100509.16;5529331;32;33979;-86
2022/06/28 07:18:16;;;;;;;11.68;5.20;;;;;;;20.52;100.00;100478.56;5529163;32;34393;-86
2022/06/28 07:21:19;;;;;;;17.77;6.03;;;;;;;20.53;100.00;100458.72;5531051;32;34634;-86
2022/06/28 07:24:22;;;;;;;13.05;6.30;;;;;;;20.53;100.00;100461.44;5531723;32;34359;-88
2022/06/28 07:27:27;;;;;;;11.32;6.28;;;;;;;20.42;100.00;100489.31;5531816;32;35292;-88
2022/06/28 07:30:30;;;;;;;10.25;6.60;;;;;;;20.47;100.00;100505.09;5541652;32;33895;-88
2022/06/28 07:33:32;;;;;;;14.77;6.50;;;;;;;20.63;100.00;100506.38;5529861;32;34011;-86
2022/06/28 07:36:35;;;;;;;12.30;6.32;;;;;;;20.66;100.00;100512.34;5528455;32;34312;-86
2022/06/28 07:39:38;;;;;;;7.72;5.30;;;;;;;20.90;100.00;100519.22;5530133;32;34026;-88
2022/06/28 07:42:43;;;;;;;13.20;5.95;;;;;;;21.15;100.00;100527.75;5530210;32;32677;-88
2022/06/28 07:45:51;;;;;;;8.35;5.75;;;;;;;21.30;100.00;100524.59;5530974;32;32522;-85
2022/06/28 07:48:55;;;;;;;9.02;5.95;;;;;;;21.64;100.00;100524.16;5533066;32;34768;-85
2022/06/28 07:55:19;;;;;;;9.40;5.62;;;;;;;21.73;100.00;100533.25;5533798;32;34069;-85
2022/06/28 07:58:23;;;;;;;9.52;5.47;;;;;;;21.79;100.00;100536.22;5543488;32;34424;-84
2022/06/28 08:01:26;;;;;;;14.93;5.50;;;;;;;21.79;100.00;100548.87;5540025;32;33894;-85
2022/06/28 08:04:30;;;;;;;10.70;5.35;;;;;;;21.68;100.00;100553.41;5543328;32;35186;-85
2022/06/28 08:07:33;;;;;;;6.75;5.15;;;;;;;21.67;100.00;100583.22;5523498;32;32124;-85
2022/06/28 08:10:36;;;;;;;9.80;5.55;;;;;;;21.78;100.00;100583.09;5509867;32;34498;-84
2022/06/28 08:13:40;;;;;;;15.13;5.70;;;;;;;21.89;100.00;100583.94;5510268;32;34049;-84
2022/06/28 08:16:43;;;;;;;8.80;5.40;;;;;;;21.91;100.00;100593.59;5508466;32;33687;-84
2022/06/28 08:19:46;;;;;;;9.07;5.20;;;;;;;21.85;100.00;100583.38;5509126;32;34033;-86
2022/06/28 08:22:49;;;;;;;8.57;5.55;;;;;;;21.99;100.00;100583.91;5511791;32;33898;-84
2022/06/28 08:25:52;;;;;;;8.80;6.03;;;;;;;22.26;100.00;100599.34;5512109;32;33635;-84
2022/06/28 08:28:55;;;;;;;7.28;5.45;;;;;;;22.31;100.00;100597.03;5513245;32;35269;-84
2022/06/28 08:31:59;;;;;;;9.52;5.35;;;;;;;22.22;100.00;100592.50;5511953;32;33748;-85
2022/06/28 08:35:02;;;;;;;6.93;4.72;;;;;;;22.56;100.00;100597.41;5510998;32;33722;-85
2022/06/28 08:38:05;;;;;;;13.65;4.80;;;;;;;22.82;100.00;100610.19;5514131;32;34101;-84
2022/06/28 08:41:09;;;;;;;6.20;3.78;;;;;;;22.85;94.09;100611.75;5515425;32;34159;-84
2022/06/28 08:44:13;;;;;;;9.80;5.12;;;;;;;22.75;90.96;100614.53;5523816;32;34275;-83
2022/06/28 08:47:20;;;;;;;7.10;4.00;;;;;;;22.87;93.70;100621.44;5521094;32;35308;-84
2022/06/28 08:50:32;;;;;;;10.52;3.75;;;;;;;22.94;87.96;100627.09;5514782;32;33600;-83
2022/06/28 08:53:36;;;;;;;4.50;3.70;;;;;;;23.00;87.85;100631.03;5513514;32;32159;-83
2022/06/28 08:56:40;;;;;;;5.40;3.80;;;;;;;22.85;90.44;100627.97;5513744;32;34172;-83
2022/06/28 08:59:44;;;;;;;6.82;3.58;;;;;;;22.85;90.85;100620.72;5514123;32;34324;-83
2022/06/28 09:02:47;;;;;;;6.57;3.83;;;;;;;22.89;90.30;100623.97;5515338;32;34204;-83
2022/06/28 09:05:50;;;;;;;6.95;3.75;;;;;;;22.97;89.94;100626.78;5515382;32;33917;-86
2022/06/28 09:08:52;;;;;;;5.05;3.95;;;;;;;23.04;89.14;100629.72;5513258;32;34834;-86
2022/06/28 09:11:55;;;;;;;8.25;4.32;;;;;;;23.23;88.32;100627.91;5513406;32;33941;-86
2022/06/28 09:14:58;;;;;;;5.95;5.18;;;;;;;23.49;88.04;100632.56;5512681;32;35155;-90
2022/06/28 09:18:01;;;;;;;5.70;4.70;;;;;;;23.33;88.80;100636.81;5529033;32;34456;-89
2022/06/28 09:21:06;;;;;;;7.85;5.05;;;;;;;23.91;88.61;100631.03;5533054;32;34165;-90
2022/06/28 09:24:09;;;;;;;9.75;4.97;;;;;;;23.88;87.24;100639.50;5531089;32;33672;-86
2022/06/28 09:27:12;;;;;;;8.88;5.15;;;;;;;24.64;84.36;100634.41;5523839;32;33947;-88
2022/06/28 09:30:15;;;;;;;6.87;4.65;;;;;;;24.75;83.06;100641.38;5530255;32;33688;-87
2022/06/28 09:33:26;;;;;;;8.95;4.80;;;;;;;24.82;81.30;100626.19;5530082;32;34372;-86
2022/06/28 09:36:31;;;;;;;5.62;4.82;;;;;;;25.12;79.90;100633.87;5525284;32;33745;-86
2022/06/28 09:39:34;;;;;;;8.13;4.62;;;;;;;25.70;78.14;100636.72;5510524;32;34069;-86
2022/06/28 09:42:36;;;;;;;6.15;4.65;;;;;;;25.92;78.63;100645.19;5510961;32;34308;-87
2022/06/28 09:45:43;;;;;;;8.32;4.43;;;;;;;26.13;76.57;100639.22;5518140;32;34278;-86
2022/06/28 09:48:46;;;;;;;9.38;4.85;;;;;;;26.61;73.47;100639.25;5530166;32;33671;-86
2022/06/28 09:51:49;;;;;;;8.63;5.10;;;;;;;26.94;72.10;100637.47;5531000;32;33722;-86
2022/06/28 09:54:56;;;;;;;6.93;4.70;;;;;;;27.39;71.30;100637.69;5530430;32;33859;-86
2022/06/28 09:58:00;;;;;;;7.18;4.97;;;;;;;27.95;69.80;100633.87;5531654;32;34363;-86
2022/06/28 10:01:04;;;;;;;10.35;5.05;;;;;;;28.30;66.76;100639.66;5534187;32;32630;-87
2022/06/28 10:04:07;;;;;;;7.87;4.93;;;;;;;28.89;65.37;100640.69;5519490;32;34627;-86
2022/06/28 10:07:11;;;;;;;6.15;4.70;;;;;;;29.69;61.94;100630.78;5519918;32;35022;-87
2022/06/28 10:10:15;;;;;;;8.25;5.55;;;;;;;29.89;59.84;100643.78;5515300;32;33985;-85
2022/06/28 10:16:58;;;;;;;7.07;5.37;;;;;;;29.24;61.34;100637.28;5512874;32;33888;-86
2022/06/28 10:20:09;;;;;;;6.15;5.45;;;;;;;29.92;60.80;100630.56;5516821;32;33779;-87
2022/06/28 10:23:36;;;;;;;8.82;4.90;;;;;;;30.76;57.46;100627.94;5511578;32;34553;-87
2022/06/28 10:26:43;;;;;;;6.72;5.20;;;;;;;31.91;54.38;100632.84;5510309;32;34429;-86
2022/06/28 10:29:58;;;;;;;6.87;4.93;;;;;;;33.17;49.07;100618.91;5510164;32;33951;-91
2022/06/28 10:33:06;;;;;;;6.00;4.37;;;;;;;33.01;47.43;100614.78;5513892;32;33183;-86
2022/06/28 10:36:13;;;;;;;7.68;4.60;;;;;;;33.50;47.97;100611.50;5510049;32;33990;-87
2022/06/28 10:39:31;;;;;;;9.95;5.03;;;;;;;33.60;47.04;100614.56;5511825;32;32801;-86
2022/06/28 10:42:51;;;;;;;6.32;4.90;;;;;;;33.09;49.19;100608.19;5511196;32;34475;-86
2022/06/28 10:46:04;;;;;;;9.83;4.90;;;;;;;32.22;51.50;100618.41;5511708;32;34182;-88
2022/06/28 10:49:09;;;;;;;6.95;4.35;;;;;;;32.60;50.99;100614.09;5566779;26;33174;-88
2022/06/28 10:52:19;;;;;;;5.82;4.25;;;;;;;32.61;50.65;100603.94;5569902;26;33977;-89
2022/06/28 10:55:22;;;;;;;6.37;5.00;;;;;;;32.56;49.12;100599.13;5517570;32;34161;-88
2022/06/28 11:17:29;;;;;;;5.00;4.60;;;;;;;33.85;46.59;100586.22;5609826;26;20103;-89
2022/06/28 11:21:01;;;;;;;6.85;4.97;;;;;;;32.53;49.21;100585.84;4576552;29;20075;-90
2022/06/28 11:31:47;;;;;;;5.90;4.40;;;;;;;32.79;48.75;100573.03;994165;26;20357;-89
2022/06/28 11:34:56;;;;;;;7.03;4.50;;;;;;;32.54;49.45;100571.88;5562583;31;33370;-89
2022/06/28 11:38:09;;;;;;;5.53;4.90;;;;;;;32.99;49.42;100563.84;5539107;32;35364;-90
2022/06/28 12:03:45;;;;;;;5.60;4.43;;;;;;;32.67;47.71;100531.69;993308;26;20399;-88
2022/06/28 12:06:48;;;;;;;8.00;5.20;;;;;;;32.88;47.23;100524.19;5596144;31;32627;-88
2022/06/28 12:09:53;;;;;;;6.50;4.32;;;;;;;32.53;47.14;100529.00;5601512;31;34128;-88
